Terminal Aerodrome Forecast
Issued by NWS Bismarck, ND

Home | Current Version | Previous Version | Text Only | Print | Product List | Glossary Off
Versions: 1 2 3 4 5 6 7 8 9 10 11 12 13 14 15 16 17 18 19 20 21 22 23 24

000
FTUS43 KBIS 231409 AAB
TAFBIS
TAF AMD
KBIS 231409Z 2314/2412 33006KT P6SM -RA BKN070 OVC100
      TEMPO 2314/2317 5SM -RA
     FM231700 05004KT 6SM -RA BKN040
     FM232300 36007KT P6SM OVC035
     FM240900 01007KT P6SM SCT035
     FM241100 36006KT P6SM BKN015=

USA.gov is the U.S. government's official web portal to all federal, state and local government web resources and services.